sensor_id;sensor_type;location;lat;lon;timestamp;pressure;altitude;pressure_sealevel;temperature;humidity
64644;BME280;51056;50.330;7.914;2022-09-09T00:02:21;100069.34;;;17.22;78.44
64644;BME280;51056;50.330;7.914;2022-09-09T00:05:59;100058.97;;;17.00;79.02
64644;BME280;51056;50.330;7.914;2022-09-09T00:09:19;100053.97;;;16.96;79.27
64644;BME280;51056;50.330;7.914;2022-09-09T00:15:41;100062.75;;;17.07;78.57
64644;BME280;51056;50.330;7.914;2022-09-09T00:25:31;100053.63;;;16.59;80.72
64644;BME280;51056;50.330;7.914;2022-09-09T00:29:25;100048.47;;;16.58;81.01
64644;BME280;51056;50.330;7.914;2022-09-09T00:32:33;100052.97;;;16.67;80.05
64644;BME280;51056;50.330;7.914;2022-09-09T00:35:41;100050.13;;;16.59;80.25
64644;BME280;51056;50.330;7.914;2022-09-09T00:38:57;100054.38;;;16.71;78.74
64644;BME280;51056;50.330;7.914;2022-09-09T00:42:18;100053.94;;;16.66;78.86
64644;BME280;51056;50.330;7.914;2022-09-09T00:45:57;100042.25;;;16.68;78.93
64644;BME280;51056;50.330;7.914;2022-09-09T00:52:46;100054.78;;;16.45;80.98
64644;BME280;51056;50.330;7.914;2022-09-09T00:56:12;100051.31;;;16.45;80.72
64644;BME280;51056;50.330;7.914;2022-09-09T00:59:28;100054.19;;;16.63;79.27
64644;BME280;51056;50.330;7.914;2022-09-09T01:02:53;100064.81;;;16.51;79.82
64644;BME280;51056;50.330;7.914;2022-09-09T01:06:31;100067.13;;;16.66;79.13
64644;BME280;51056;50.330;7.914;2022-09-09T01:12:51;100066.75;;;16.49;79.07
64644;BME280;51056;50.330;7.914;2022-09-09T01:16:06;100055.47;;;16.26;80.03
64644;BME280;51056;50.330;7.914;2022-09-09T01:19:32;100055.09;;;16.52;78.87
64644;BME280;51056;50.330;7.914;2022-09-09T01:29:32;100056.72;;;16.22;80.01
64644;BME280;51056;50.330;7.914;2022-09-09T01:32:46;100053.25;;;16.22;80.49
64644;BME280;51056;50.330;7.914;2022-09-09T01:35:59;100058.03;;;16.17;80.23
64644;BME280;51056;50.330;7.914;2022-09-09T01:39:09;100047.31;;;16.09;80.14
64644;BME280;51056;50.330;7.914;2022-09-09T01:42:15;100059.19;;;16.24;79.92
64644;BME280;51056;50.330;7.914;2022-09-09T01:45:21;100058.59;;;16.32;79.34
64644;BME280;51056;50.330;7.914;2022-09-09T01:48:25;100067.78;;;16.37;78.77
64644;BME280;51056;50.330;7.914;2022-09-09T01:51:39;100072.13;;;16.27;79.24
64644;BME280;51056;50.330;7.914;2022-09-09T01:54:47;100067.78;;;16.37;78.62
64644;BME280;51056;50.330;7.914;2022-09-09T02:01:50;100069.06;;;16.22;79.79
64644;BME280;51056;50.330;7.914;2022-09-09T02:05:26;100072.81;;;16.40;78.96
64644;BME280;51056;50.330;7.914;2022-09-09T02:08:53;100076.97;;;16.43;78.19
64644;BME280;51056;50.330;7.914;2022-09-09T02:12:18;100063.72;;;16.33;78.56
64644;BME280;51056;50.330;7.914;2022-09-09T02:21:53;100071.31;;;16.26;78.28
64644;BME280;51056;50.330;7.914;2022-09-09T02:24:59;100067.66;;;16.18;78.82
64644;BME280;51056;50.330;7.914;2022-09-09T02:28:07;100068.81;;;16.25;78.60
64644;BME280;51056;50.330;7.914;2022-09-09T02:31:14;100067.19;;;16.13;78.77
64644;BME280;51056;50.330;7.914;2022-09-09T02:34:21;100065.53;;;16.12;78.70
64644;BME280;51056;50.330;7.914;2022-09-09T02:37:33;100066.28;;;16.02;79.02
64644;BME280;51056;50.330;7.914;2022-09-09T02:40:38;100061.19;;;16.11;78.54
64644;BME280;51056;50.330;7.914;2022-09-09T02:43:43;100054.50;;;16.07;78.75
64644;BME280;51056;50.330;7.914;2022-09-09T02:47:16;100052.38;;;16.00;78.88
64644;BME280;51056;50.330;7.914;2022-09-09T02:50:35;100052.38;;;16.00;78.38
64644;BME280;51056;50.330;7.914;2022-09-09T02:53:49;100053.09;;;16.02;79.10
64644;BME280;51056;50.330;7.914;2022-09-09T02:57:19;100056.09;;;15.98;79.15
64644;BME280;51056;50.330;7.914;2022-09-09T03:00:26;100058.94;;;16.06;78.60
64644;BME280;51056;50.330;7.914;2022-09-09T03:03:35;100056.25;;;16.17;78.34
64644;BME280;51056;50.330;7.914;2022-09-09T03:06:45;100050.78;;;16.09;78.95
64644;BME280;51056;50.330;7.914;2022-09-09T03:09:55;100053.19;;;16.01;79.14
64644;BME280;51056;50.330;7.914;2022-09-09T03:13:02;100054.09;;;15.90;79.55
64644;BME280;51056;50.330;7.914;2022-09-09T03:16:10;100056.34;;;15.95;79.10
64644;BME280;51056;50.330;7.914;2022-09-09T03:19:20;100053.41;;;16.09;78.33
64644;BME280;51056;50.330;7.914;2022-09-09T03:22:24;100055.00;;;16.00;78.63
64644;BME280;51056;50.330;7.914;2022-09-09T03:25:28;100061.94;;;16.01;78.76
64644;BME280;51056;50.330;7.914;2022-09-09T03:28:42;100064.97;;;15.97;78.84
64644;BME280;51056;50.330;7.914;2022-09-09T03:31:46;100063.31;;;15.96;79.05
64644;BME280;51056;50.330;7.914;2022-09-09T03:34:50;100063.22;;;15.86;79.40
64644;BME280;51056;50.330;7.914;2022-09-09T03:37:54;100057.97;;;15.86;79.56
64644;BME280;51056;50.330;7.914;2022-09-09T03:40:59;100069.66;;;15.93;79.54
64644;BME280;51056;50.330;7.914;2022-09-09T03:44:04;100076.34;;;15.97;79.37
64644;BME280;51056;50.330;7.914;2022-09-09T03:47:12;100073.47;;;16.00;79.24
64644;BME280;51056;50.330;7.914;2022-09-09T03:50:29;100075.13;;;16.01;79.26
64644;BME280;51056;50.330;7.914;2022-09-09T03:54:22;100071.31;;;15.94;79.87
64644;BME280;51056;50.330;7.914;2022-09-09T03:57:26;100064.06;;;15.87;80.03
64644;BME280;51056;50.330;7.914;2022-09-09T04:00:30;100059.69;;;15.97;80.01
64644;BME280;51056;50.330;7.914;2022-09-09T04:03:36;100066.78;;;15.96;80.30
64644;BME280;51056;50.330;7.914;2022-09-09T04:06:40;100068.19;;;16.00;80.02
64644;BME280;51056;50.330;7.914;2022-09-09T04:09:44;100065.31;;;16.03;79.99
64644;BME280;51056;50.330;7.914;2022-09-09T04:12:48;100072.25;;;16.04;79.67
64644;BME280;51056;50.330;7.914;2022-09-09T04:15:54;100071.50;;;16.14;79.54
64644;BME280;51056;50.330;7.914;2022-09-09T04:18:58;100064.28;;;16.16;79.54
64644;BME280;51056;50.330;7.914;2022-09-09T04:22:03;100071.75;;;16.11;79.88
64644;BME280;51056;50.330;7.914;2022-09-09T04:25:07;100071.88;;;16.09;80.05
64644;BME280;51056;50.330;7.914;2022-09-09T04:28:13;100071.50;;;16.14;79.89
64644;BME280;51056;50.330;7.914;2022-09-09T04:31:21;100076.34;;;15.97;80.66
64644;BME280;51056;50.330;7.914;2022-09-09T04:34:29;100075.13;;;16.01;80.02
64644;BME280;51056;50.330;7.914;2022-09-09T04:37:39;100079.97;;;15.96;80.17
64644;BME280;51056;50.330;7.914;2022-09-09T04:51:11;100079.22;;;15.51;83.01
64644;BME280;51056;50.330;7.914;2022-09-09T05:00:19;100089.28;;;15.12;84.80
64644;BME280;51056;50.330;7.914;2022-09-09T05:09:43;100085.69;;;15.58;82.85
64644;BME280;51056;50.330;7.914;2022-09-09T05:14:30;100095.13;;;15.49;83.14
64644;BME280;51056;50.330;7.914;2022-09-09T05:19:03;100107.25;;;15.29;84.37
64644;BME280;51056;50.330;7.914;2022-09-09T05:33:47;100103.06;;;15.38;84.65
64644;BME280;51056;50.330;7.914;2022-09-09T05:42:12;100115.50;;;15.47;84.94
64644;BME280;51056;50.330;7.914;2022-09-09T05:45:27;100111.19;;;15.57;84.97
64644;BME280;51056;50.330;7.914;2022-09-09T05:48:48;100105.06;;;15.79;83.81
64644;BME280;51056;50.330;7.914;2022-09-09T05:51:57;100112.88;;;15.70;84.22
64644;BME280;51056;50.330;7.914;2022-09-09T05:55:01;100110.28;;;15.91;83.45
64644;BME280;51056;50.330;7.914;2022-09-09T05:58:08;100114.31;;;15.74;84.29
64644;BME280;51056;50.330;7.914;2022-09-09T06:01:40;100109.97;;;15.73;84.49
64644;BME280;51056;50.330;7.914;2022-09-09T06:04:59;100112.84;;;15.58;85.32
64644;BME280;51056;50.330;7.914;2022-09-09T06:12:44;100120.38;;;15.63;85.53
64644;BME280;51056;50.330;7.914;2022-09-09T06:16:00;100114.06;;;15.54;85.80
64644;BME280;51056;50.330;7.914;2022-09-09T06:19:05;100110.84;;;15.73;85.40
64644;BME280;51056;50.330;7.914;2022-09-09T06:22:33;100111.09;;;15.70;85.55
64644;BME280;51056;50.330;7.914;2022-09-09T06:25:45;100105.44;;;15.75;84.57
64644;BME280;51056;50.330;7.914;2022-09-09T06:28:54;100106.34;;;15.96;83.35
64644;BME280;51056;50.330;7.914;2022-09-09T06:32:02;100104.06;;;16.24;82.81
64644;BME280;51056;50.330;7.914;2022-09-09T06:35:13;100097.88;;;16.14;82.40
64644;BME280;51056;50.330;7.914;2022-09-09T06:38:17;100100.75;;;16.11;84.19
64644;BME280;51056;50.330;7.914;2022-09-09T06:41:29;100090.75;;;16.25;84.26
64644;BME280;51056;50.330;7.914;2022-09-09T06:44:34;100089.22;;;16.44;82.54
64644;BME280;51056;50.330;7.914;2022-09-09T06:47:45;100096.03;;;16.67;81.94
64644;BME280;51056;50.330;7.914;2022-09-09T06:54:13;100093.78;;;16.63;81.96
64644;BME280;51056;50.330;7.914;2022-09-09T06:57:29;100091.59;;;16.68;82.69
64644;BME280;51056;50.330;7.914;2022-09-09T07:00:33;100094.78;;;16.83;81.99
64644;BME280;51056;50.330;7.914;2022-09-09T07:03:42;100097.91;;;16.98;81.44
64644;BME280;51056;50.330;7.914;2022-09-09T07:06:59;100100.19;;;17.12;80.91
64644;BME280;51056;50.330;7.914;2022-09-09T07:10:30;100098.25;;;17.14;80.93
64644;BME280;51056;50.330;7.914;2022-09-09T07:13:34;100099.50;;;17.19;81.58
64644;BME280;51056;50.330;7.914;2022-09-09T07:16:42;100096.91;;;17.29;78.04
64644;BME280;51056;50.330;7.914;2022-09-09T07:19:46;100103.09;;;17.39;74.30
64644;BME280;51056;50.330;7.914;2022-09-09T07:22:54;100108.66;;;17.46;74.06
64644;BME280;51056;50.330;7.914;2022-09-09T07:25:58;100089.09;;;17.68;73.31
64644;BME280;51056;50.330;7.914;2022-09-09T07:29:03;100098.75;;;17.79;72.11
64644;BME280;51056;50.330;7.914;2022-09-09T07:32:07;100099.84;;;17.86;70.99
64644;BME280;51056;50.330;7.914;2022-09-09T07:35:14;100097.50;;;17.93;70.02
64644;BME280;51056;50.330;7.914;2022-09-09T07:38:19;100101.69;;;17.85;70.38
64644;BME280;51056;50.330;7.914;2022-09-09T07:41:25;100094.81;;;17.73;69.95
64644;BME280;51056;50.330;7.914;2022-09-09T07:44:28;100101.63;;;17.66;69.63
64644;BME280;51056;50.330;7.914;2022-09-09T07:47:45;100097.44;;;17.73;68.57
64644;BME280;51056;50.330;7.914;2022-09-09T07:50:48;100107.06;;;17.74;67.26
64644;BME280;51056;50.330;7.914;2022-09-09T07:53:54;100115.59;;;17.87;66.82
64644;BME280;51056;50.330;7.914;2022-09-09T07:57:03;100108.53;;;18.07;65.81
64644;BME280;51056;50.330;7.914;2022-09-09T08:00:45;100120.22;;;18.15;63.56
64644;BME280;51056;50.330;7.914;2022-09-09T08:04:03;100111.44;;;18.14;63.28
64644;BME280;51056;50.330;7.914;2022-09-09T08:12:33;100121.63;;;18.48;62.60
64644;BME280;51056;50.330;7.914;2022-09-09T08:15:40;100119.38;;;18.43;62.94
64644;BME280;51056;50.330;7.914;2022-09-09T08:18:45;100118.25;;;18.46;63.22
64644;BME280;51056;50.330;7.914;2022-09-09T08:21:51;100131.22;;;18.49;63.37
64644;BME280;51056;50.330;7.914;2022-09-09T08:24:55;100125.66;;;18.42;63.31
64644;BME280;51056;50.330;7.914;2022-09-09T08:28:00;100128.00;;;18.55;63.35
64644;BME280;51056;50.330;7.914;2022-09-09T08:31:09;100145.16;;;18.61;63.08
64644;BME280;51056;50.330;7.914;2022-09-09T08:34:13;100131.06;;;18.60;62.88
64644;BME280;51056;50.330;7.914;2022-09-09T08:37:35;100137.06;;;18.62;62.59
64644;BME280;51056;50.330;7.914;2022-09-09T08:41:21;100139.31;;;18.57;62.65
64644;BME280;51056;50.330;7.914;2022-09-09T08:45:16;100139.88;;;18.51;61.47
64644;BME280;51056;50.330;7.914;2022-09-09T08:56:35;100123.75;;;19.01;58.76
64644;BME280;51056;50.330;7.914;2022-09-09T08:59:41;100126.13;;;19.04;58.08
64644;BME280;51056;50.330;7.914;2022-09-09T09:03:27;100136.63;;;18.86;58.26
64644;BME280;51056;50.330;7.914;2022-09-09T09:13:47;100128.97;;;18.83;55.78
64644;BME280;51056;50.330;7.914;2022-09-09T09:17:18;100127.28;;;18.82;56.28
64644;BME280;51056;50.330;7.914;2022-09-09T09:20:58;100141.53;;;18.81;55.76
64644;BME280;51056;50.330;7.914;2022-09-09T09:24:25;100123.22;;;18.88;55.71
64644;BME280;51056;50.330;7.914;2022-09-09T09:27:40;100125.19;;;18.95;56.19
64644;BME280;51056;50.330;7.914;2022-09-09T09:30:54;100123.78;;;18.91;55.16
64644;BME280;51056;50.330;7.914;2022-09-09T09:33:59;100118.97;;;19.14;54.91
64644;BME280;51056;50.330;7.914;2022-09-09T09:37:16;100121.28;;;19.27;54.92
64644;BME280;51056;50.330;7.914;2022-09-09T09:40:23;100118.34;;;19.30;54.63
64644;BME280;51056;50.330;7.914;2022-09-09T09:55:48;100123.88;;;19.37;53.36
64644;BME280;51056;50.330;7.914;2022-09-09T09:58:58;100107.22;;;19.54;53.16
64644;BME280;51056;50.330;7.914;2022-09-09T10:02:17;100117.28;;;19.50;53.32
64644;BME280;51056;50.330;7.914;2022-09-09T10:05:28;100107.50;;;19.51;53.42
64644;BME280;51056;50.330;7.914;2022-09-09T10:16:08;100106.91;;;19.57;53.28
64644;BME280;51056;50.330;7.914;2022-09-09T10:19:30;100105.50;;;19.63;53.61
64644;BME280;51056;50.330;7.914;2022-09-09T10:22:35;100112.81;;;19.79;50.23
64644;BME280;51056;50.330;7.914;2022-09-09T10:25:57;100092.50;;;19.69;50.15
64644;BME280;51056;50.330;7.914;2022-09-09T10:38:58;100084.63;;;20.13;48.85
64644;BME280;51056;50.330;7.914;2022-09-09T10:42:16;100084.78;;;20.30;48.42
64644;BME280;51056;50.330;7.914;2022-09-09T10:52:01;100089.31;;;20.37;48.52
64644;BME280;51056;50.330;7.914;2022-09-09T10:55:20;100080.81;;;20.16;49.59
64644;BME280;51056;50.330;7.914;2022-09-09T10:58:58;100077.25;;;20.25;49.33
64644;BME280;51056;50.330;7.914;2022-09-09T11:02:29;100100.19;;;20.08;48.67
64644;BME280;51056;50.330;7.914;2022-09-09T11:08:45;100088.50;;;20.01;49.22
64644;BME280;51056;50.330;7.914;2022-09-09T11:12:00;100080.25;;;20.04;49.59
64644;BME280;51056;50.330;7.914;2022-09-09T11:15:29;100075.72;;;20.23;49.91
64644;BME280;51056;50.330;7.914;2022-09-09T11:18:38;100077.53;;;20.40;49.56
64644;BME280;51056;50.330;7.914;2022-09-09T11:21:49;100080.72;;;20.61;49.21
64644;BME280;51056;50.330;7.914;2022-09-09T11:25:23;100082.00;;;20.57;48.40
64644;BME280;51056;50.330;7.914;2022-09-09T11:35:46;100084.66;;;20.57;48.33
64644;BME280;51056;50.330;7.914;2022-09-09T11:38:57;100102.31;;;20.66;48.62
64644;BME280;51056;50.330;7.914;2022-09-09T11:45:25;100075.94;;;20.65;48.46
64644;BME280;51056;50.330;7.914;2022-09-09T11:48:41;100076.94;;;20.98;47.17
64644;BME280;51056;50.330;7.914;2022-09-09T11:51:48;100080.19;;;20.84;47.78
64644;BME280;51056;50.330;7.914;2022-09-09T11:54:55;100074.19;;;20.82;48.30
64644;BME280;51056;50.330;7.914;2022-09-09T11:57:59;100075.44;;;20.70;48.58
64644;BME280;51056;50.330;7.914;2022-09-09T12:01:25;100074.75;;;20.67;48.41
64644;BME280;51056;50.330;7.914;2022-09-09T12:04:37;100077.41;;;20.67;48.31
64644;BME280;51056;50.330;7.914;2022-09-09T12:07:52;100056.31;;;20.92;48.10
64644;BME280;51056;50.330;7.914;2022-09-09T12:10:59;100069.25;;;20.87;47.95
64644;BME280;51056;50.330;7.914;2022-09-09T12:14:22;100069.09;;;20.62;48.86
64644;BME280;51056;50.330;7.914;2022-09-09T12:17:28;100069.19;;;20.35;49.51
64644;BME280;51056;50.330;7.914;2022-09-09T12:20:38;100072.47;;;20.29;50.08
64644;BME280;51056;50.330;7.914;2022-09-09T12:23:47;100083.78;;;20.13;50.55
64644;BME280;51056;50.330;7.914;2022-09-09T12:27:14;100084.78;;;20.30;50.03
64644;BME280;51056;50.330;7.914;2022-09-09T12:30:29;100081.19;;;20.83;49.59
64644;BME280;51056;50.330;7.914;2022-09-09T12:33:40;100065.19;;;21.35;49.13
64644;BME280;51056;50.330;7.914;2022-09-09T12:41:32;100066.63;;;21.88;47.52
64644;BME280;51056;50.330;7.914;2022-09-09T12:45:03;100051.84;;;22.51;46.84
64644;BME280;51056;50.330;7.914;2022-09-09T12:48:19;100051.00;;;22.42;46.35
64644;BME280;51056;50.330;7.914;2022-09-09T12:51:32;100042.63;;;22.94;45.72
64644;BME280;51056;50.330;7.914;2022-09-09T12:54:37;100043.22;;;23.75;42.88
64644;BME280;51056;50.330;7.914;2022-09-09T12:57:48;100029.59;;;25.49;39.79
64644;BME280;51056;50.330;7.914;2022-09-09T13:00:56;100023.72;;;28.31;33.65
64644;BME280;51056;50.330;7.914;2022-09-09T13:04:01;100030.44;;;29.44;31.90
64644;BME280;51056;50.330;7.914;2022-09-09T13:07:06;100012.16;;;34.08;25.15
64644;BME280;51056;50.330;7.914;2022-09-09T13:10:22;100004.91;;;36.79;21.39
64644;BME280;51056;50.330;7.914;2022-09-09T13:13:39;99994.16;;;35.45;23.14
64644;BME280;51056;50.330;7.914;2022-09-09T13:16:58;100011.72;;;27.93;33.41
64644;BME280;51056;50.330;7.914;2022-09-09T13:20:04;100026.16;;;28.32;33.13
64644;BME280;51056;50.330;7.914;2022-09-09T13:23:24;100008.53;;;25.83;36.81
64644;BME280;51056;50.330;7.914;2022-09-09T13:26:40;100002.97;;;26.34;36.53
64644;BME280;51056;50.330;7.914;2022-09-09T13:29:52;99987.72;;;30.92;28.25
64644;BME280;51056;50.330;7.914;2022-09-09T13:33:20;99985.44;;;30.33;28.78
64644;BME280;51056;50.330;7.914;2022-09-09T13:36:32;99980.66;;;30.35;28.81
64644;BME280;51056;50.330;7.914;2022-09-09T13:39:37;99999.22;;;27.52;33.07
64644;BME280;51056;50.330;7.914;2022-09-09T13:42:41;99996.47;;;25.36;36.98
64644;BME280;51056;50.330;7.914;2022-09-09T13:45:53;100002.53;;;24.11;40.11
64644;BME280;51056;50.330;7.914;2022-09-09T13:49:01;100020.22;;;23.43;41.21
64644;BME280;51056;50.330;7.914;2022-09-09T13:52:11;100022.00;;;22.72;43.46
64644;BME280;51056;50.330;7.914;2022-09-09T13:55:17;100061.31;;;21.96;46.13
64644;BME280;51056;50.330;7.914;2022-09-09T13:58:22;100089.69;;;21.55;48.98
64644;BME280;51056;50.330;7.914;2022-09-09T14:01:26;100071.59;;;20.64;54.19
64644;BME280;51056;50.330;7.914;2022-09-09T14:04:30;100073.38;;;20.37;52.96
64644;BME280;51056;50.330;7.914;2022-09-09T14:07:34;100077.59;;;22.91;47.54
64644;BME280;51056;50.330;7.914;2022-09-09T14:10:41;100056.94;;;25.00;43.70
64644;BME280;51056;50.330;7.914;2022-09-09T14:13:53;100040.66;;;28.11;37.44
64644;BME280;51056;50.330;7.914;2022-09-09T14:16:56;100030.78;;;30.87;33.42
64644;BME280;51056;50.330;7.914;2022-09-09T14:19:59;100010.75;;;31.73;31.01
64644;BME280;51056;50.330;7.914;2022-09-09T14:23:03;100011.63;;;33.31;29.03
64644;BME280;51056;50.330;7.914;2022-09-09T14:26:07;100013.50;;;33.60;29.01
64644;BME280;51056;50.330;7.914;2022-09-09T14:29:11;100012.09;;;32.88;29.06
64644;BME280;51056;50.330;7.914;2022-09-09T14:32:15;100016.13;;;32.27;30.92
64644;BME280;51056;50.330;7.914;2022-09-09T14:35:19;100016.34;;;31.60;31.65
64644;BME280;51056;50.330;7.914;2022-09-09T14:38:28;100011.38;;;30.09;33.59
64644;BME280;51056;50.330;7.914;2022-09-09T14:41:42;100004.69;;;30.80;33.77
64644;BME280;51056;50.330;7.914;2022-09-09T14:44:46;100000.28;;;29.23;37.17
64644;BME280;51056;50.330;7.914;2022-09-09T14:48:17;100007.03;;;25.22;44.04
64644;BME280;51056;50.330;7.914;2022-09-09T14:51:22;100020.16;;;24.20;47.09
64644;BME280;51056;50.330;7.914;2022-09-09T14:54:26;100032.44;;;23.29;49.69
64644;BME280;51056;50.330;7.914;2022-09-09T14:57:30;100043.84;;;22.43;52.36
64644;BME280;51056;50.330;7.914;2022-09-09T15:00:34;100046.66;;;22.00;53.46
64644;BME280;51056;50.330;7.914;2022-09-09T15:03:39;100052.66;;;21.27;55.88
64644;BME280;51056;50.330;7.914;2022-09-09T15:06:42;100060.94;;;21.16;56.46
64644;BME280;51056;50.330;7.914;2022-09-09T15:09:50;100064.09;;;20.85;57.34
64644;BME280;51056;50.330;7.914;2022-09-09T15:12:54;100070.19;;;20.78;57.67
64644;BME280;51056;50.330;7.914;2022-09-09T15:16:22;100080.84;;;20.86;58.60
64644;BME280;51056;50.330;7.914;2022-09-09T15:19:54;100092.56;;;20.93;58.46
64644;BME280;51056;50.330;7.914;2022-09-09T15:22:58;100109.47;;;20.92;58.76
64644;BME280;51056;50.330;7.914;2022-09-09T15:26:27;100128.88;;;20.66;60.59
64644;BME280;51056;50.330;7.914;2022-09-09T15:29:31;100137.13;;;19.46;71.83
64644;BME280;51056;50.330;7.914;2022-09-09T15:32:36;100152.06;;;19.00;70.55
64644;BME280;51056;50.330;7.914;2022-09-09T15:35:39;100145.25;;;18.88;72.29
64644;BME280;51056;50.330;7.914;2022-09-09T15:38:43;100141.81;;;18.58;70.04
64644;BME280;51056;50.330;7.914;2022-09-09T15:41:47;100141.09;;;18.76;73.17
64644;BME280;51056;50.330;7.914;2022-09-09T15:44:52;100140.09;;;18.96;73.26
64644;BME280;51056;50.330;7.914;2022-09-09T15:47:56;100131.97;;;19.08;72.99
64644;BME280;51056;50.330;7.914;2022-09-09T15:51:03;100118.97;;;19.14;73.15
64644;BME280;51056;50.330;7.914;2022-09-09T15:54:09;100120.56;;;18.97;74.17
64644;BME280;51056;50.330;7.914;2022-09-09T15:57:13;100129.06;;;18.91;75.62
64644;BME280;51056;50.330;7.914;2022-09-09T16:00:16;100130.75;;;19.02;74.96
64644;BME280;51056;50.330;7.914;2022-09-09T16:03:19;100121.50;;;19.06;73.25
64644;BME280;51056;50.330;7.914;2022-09-09T16:06:53;100118.78;;;18.78;74.63
64644;BME280;51056;50.330;7.914;2022-09-09T16:09:57;100116.03;;;18.80;73.75
64644;BME280;51056;50.330;7.914;2022-09-09T16:13:00;100132.31;;;18.75;77.50
64644;BME280;51056;50.330;7.914;2022-09-09T16:16:03;100132.75;;;18.61;72.67
64644;BME280;51056;50.330;7.914;2022-09-09T16:19:11;100128.16;;;18.44;72.05
64644;BME280;51056;50.330;7.914;2022-09-09T16:22:15;100123.41;;;18.76;71.70
64644;BME280;51056;50.330;7.914;2022-09-09T16:25:19;100132.47;;;18.84;70.86
64644;BME280;51056;50.330;7.914;2022-09-09T16:28:23;100129.97;;;18.72;71.36
64644;BME280;51056;50.330;7.914;2022-09-09T16:31:27;100126.06;;;18.47;72.81
64644;BME280;51056;50.330;7.914;2022-09-09T16:34:31;100122.75;;;18.26;74.17
64644;BME280;51056;50.330;7.914;2022-09-09T16:37:37;100124.81;;;18.32;74.40
64644;BME280;51056;50.330;7.914;2022-09-09T16:40:40;100112.97;;;18.55;74.08
64644;BME280;51056;50.330;7.914;2022-09-09T16:43:44;100110.19;;;18.76;72.73
64644;BME280;51056;50.330;7.914;2022-09-09T16:46:48;100117.22;;;18.86;73.14
64644;BME280;51056;50.330;7.914;2022-09-09T16:49:51;100129.38;;;18.78;74.44
64644;BME280;51056;50.330;7.914;2022-09-09T16:52:55;100128.72;;;18.57;73.31
64644;BME280;51056;50.330;7.914;2022-09-09T16:56:04;100124.09;;;18.59;73.21
64644;BME280;51056;50.330;7.914;2022-09-09T16:59:14;100129.00;;;18.54;74.83
64644;BME280;51056;50.330;7.914;2022-09-09T17:02:18;100134.97;;;18.17;78.32
64644;BME280;51056;50.330;7.914;2022-09-09T17:05:22;100140.28;;;18.36;77.09
64644;BME280;51056;50.330;7.914;2022-09-09T17:08:26;100144.75;;;18.26;77.94
64644;BME280;51056;50.330;7.914;2022-09-09T17:11:29;100147.38;;;18.17;78.21
64644;BME280;51056;50.330;7.914;2022-09-09T17:14:33;100152.47;;;17.89;80.01
64644;BME280;51056;50.330;7.914;2022-09-09T17:17:38;100150.84;;;18.17;78.06
64644;BME280;51056;50.330;7.914;2022-09-09T17:20:42;100154.75;;;17.94;79.38
64644;BME280;51056;50.330;7.914;2022-09-09T17:23:47;100158.22;;;18.04;79.10
64644;BME280;51056;50.330;7.914;2022-09-09T17:26:51;100168.56;;;17.76;79.53
64644;BME280;51056;50.330;7.914;2022-09-09T17:29:54;100163.09;;;17.99;79.64
64644;BME280;51056;50.330;7.914;2022-09-09T17:32:59;100163.66;;;18.12;78.48
64644;BME280;51056;50.330;7.914;2022-09-09T17:36:11;100164.75;;;17.90;79.83
64644;BME280;51056;50.330;7.914;2022-09-09T17:39:31;100173.94;;;18.05;79.11
64644;BME280;51056;50.330;7.914;2022-09-09T17:42:37;100180.03;;;17.86;78.69
64644;BME280;51056;50.330;7.914;2022-09-09T17:45:40;100175.72;;;17.85;78.80
64644;BME280;51056;50.330;7.914;2022-09-09T17:48:44;100169.38;;;17.67;77.97
64644;BME280;51056;50.330;7.914;2022-09-09T17:51:47;100168.78;;;17.54;78.51
64644;BME280;51056;50.330;7.914;2022-09-09T17:54:51;100168.66;;;17.55;78.87
64644;BME280;51056;50.330;7.914;2022-09-09T17:57:54;100175.03;;;17.53;79.48
64644;BME280;51056;50.330;7.914;2022-09-09T18:01:09;100184.22;;;17.49;79.75
64644;BME280;51056;50.330;7.914;2022-09-09T18:04:17;100182.63;;;17.36;80.13
64644;BME280;51056;50.330;7.914;2022-09-09T18:07:20;100186.47;;;17.32;80.09
64644;BME280;51056;50.330;7.914;2022-09-09T18:10:24;100181.75;;;17.26;80.91
64644;BME280;51056;50.330;7.914;2022-09-09T18:13:28;100179.44;;;17.12;81.74
64644;BME280;51056;50.330;7.914;2022-09-09T18:16:33;100184.25;;;17.28;80.87
64644;BME280;51056;50.330;7.914;2022-09-09T18:19:38;100194.97;;;17.05;81.81
64644;BME280;51056;50.330;7.914;2022-09-09T18:22:42;100191.66;;;17.13;81.65
64644;BME280;51056;50.330;7.914;2022-09-09T18:25:46;100213.25;;;17.18;80.54
64644;BME280;51056;50.330;7.914;2022-09-09T18:28:51;100207.72;;;17.21;80.82
64644;BME280;51056;50.330;7.914;2022-09-09T18:31:55;100209.13;;;17.25;80.96
64644;BME280;51056;50.330;7.914;2022-09-09T18:34:58;100208.19;;;17.26;81.05
64644;BME280;51056;50.330;7.914;2022-09-09T18:38:02;100213.66;;;17.13;81.27
64644;BME280;51056;50.330;7.914;2022-09-09T18:44:24;100205.34;;;17.18;81.59
64644;BME280;51056;50.330;7.914;2022-09-09T18:47:28;100217.19;;;17.03;80.89
64644;BME280;51056;50.330;7.914;2022-09-09T18:50:33;100221.31;;;16.95;82.10
64644;BME280;51056;50.330;7.914;2022-09-09T18:53:37;100219.41;;;16.98;80.78
64644;BME280;51056;50.330;7.914;2022-09-09T18:56:42;100209.41;;;17.01;80.60
64644;BME280;51056;50.330;7.914;2022-09-09T18:59:49;100221.31;;;16.95;81.72
64644;BME280;51056;50.330;7.914;2022-09-09T19:03:05;100216.47;;;16.80;82.38
64644;BME280;51056;50.330;7.914;2022-09-09T19:06:22;100221.25;;;16.86;82.50
64644;BME280;51056;50.330;7.914;2022-09-09T19:09:29;100229.59;;;16.70;83.12
64644;BME280;51056;50.330;7.914;2022-09-09T19:12:34;100220.59;;;16.93;82.20
64644;BME280;51056;50.330;7.914;2022-09-09T19:15:42;100218.59;;;17.07;80.42
64644;BME280;51056;50.330;7.914;2022-09-09T19:18:45;100226.13;;;16.90;81.90
64644;BME280;51056;50.330;7.914;2022-09-09T19:21:53;100219.91;;;16.91;80.37